Terminal Aerodrome Forecast
Issued by NWS

Home | Current Version | Previous Version | Text Only | Print | Product List | Glossary On
Versions: 1 2 3 4 5 6 7 8 9 10 11 12 13 14 15 16 17 18 19 20 21 22 23 24 25 26 27
000
FTUS45 KLKN 271120
TAFTPH
TAF
KTPH 271120Z 2712/2812 35011KT P6SM BKN120
     FM271800 20012G22KT P6SM BKN070
     FM280000 30007KT P6SM -SHRASN OVC050=

USA.gov is the U.S. government's official web portal to all federal, state and local government web resources and services.